Time;durP1;ratioP1;P1;durP2;ratioP2;P2;SDS_P1;SDS_P2;PMS_P1;PMS_P2;Temp;Humidity;BMP_temperature;BMP_pressure;BME280_temperature;BME280_humidity;BME280_pressure;Samples;Min_cycle;Max_cycle;Signal;HPM_P1;HPM_P2
2022/03/31 00:02:25;;;;;;;16.03;14.43;;;;;;;;;;5006998;28;20025;-49
2022/03/31 00:04:50;;;;;;;9.82;5.20;;;;;;;;;;5012484;28;20276;-51
2022/03/31 00:07:15;;;;;;;9.60;6.57;;;;;;;;;;5010593;28;20561;-50
2022/03/31 00:09:40;;;;;;;10.83;6.40;;;;;;;;;;5010798;28;20497;-50
2022/03/31 00:12:06;;;;;;;13.20;8.20;;;;;;;;;;5010464;28;20776;-51
2022/03/31 00:14:31;;;;;;;14.20;11.07;;;;;;;;;;5010352;28;20288;-51
2022/03/31 00:16:56;;;;;;;21.05;18.90;;;;;;;;;;5010324;28;20022;-51
2022/03/31 00:19:21;;;;;;;10.07;5.10;;;;;;;;;;5010734;28;20216;-51
2022/03/31 00:21:48;;;;;;;9.97;4.83;;;;;;;;;;5019412;28;20451;-51
2022/03/31 00:24:13;;;;;;;8.30;5.13;;;;;;;;;;5016810;28;20265;-50
2022/03/31 00:26:39;;;;;;;9.68;5.30;;;;;;;;;;5009096;28;20025;-51
2022/03/31 00:29:05;;;;;;;10.82;5.70;;;;;;;;;;5006754;28;20052;-50
2022/03/31 00:31:30;;;;;;;10.95;5.75;;;;;;;;;;5007727;28;20014;-51
2022/03/31 00:33:55;;;;;;;9.77;6.15;;;;;;;;;;5007470;28;20045;-50
2022/03/31 00:36:20;;;;;;;10.57;6.00;;;;;;;;;;5006949;28;20029;-52
2022/03/31 00:41:34;;;;;;;10.65;7.82;;;;;;;;;;5014974;28;20028;-49
2022/03/31 00:43:59;;;;;;;10.45;6.00;;;;;;;;;;5020120;28;20033;-52
2022/03/31 00:46:25;;;;;;;12.63;7.87;;;;;;;;;;5014356;28;20044;-49
2022/03/31 00:48:50;;;;;;;9.38;5.82;;;;;;;;;;5012044;28;20027;-51
2022/03/31 00:51:16;;;;;;;9.27;5.97;;;;;;;;;;5009685;28;20046;-50
2022/03/31 00:53:41;;;;;;;12.57;6.47;;;;;;;;;;5009267;28;20350;-50
2022/03/31 00:56:07;;;;;;;9.90;4.80;;;;;;;;;;5009333;28;20113;-50
2022/03/31 00:58:32;;;;;;;9.37;5.03;;;;;;;;;;4991813;28;20082;-51
2022/03/31 01:00:57;;;;;;;8.80;5.10;;;;;;;;;;5011411;28;20845;-50
2022/03/31 01:03:22;;;;;;;9.45;5.35;;;;;;;;;;5023124;28;20018;-50
2022/03/31 01:05:47;;;;;;;9.83;5.07;;;;;;;;;;5007589;28;20326;-50
2022/03/31 01:08:13;;;;;;;7.97;5.03;;;;;;;;;;5007418;28;20120;-50
2022/03/31 01:10:38;;;;;;;8.57;4.93;;;;;;;;;;5007068;28;20386;-50
2022/03/31 01:13:04;;;;;;;10.87;5.23;;;;;;;;;;5006616;28;20683;-50
2022/03/31 01:15:30;;;;;;;9.38;5.00;;;;;;;;;;5006591;28;20041;-50
2022/03/31 01:17:55;;;;;;;9.33;5.27;;;;;;;;;;5006460;28;20733;-50
2022/03/31 01:20:20;;;;;;;9.50;5.00;;;;;;;;;;5006591;28;20556;-50
2022/03/31 01:22:46;;;;;;;7.75;4.88;;;;;;;;;;4989134;28;20274;-49
2022/03/31 01:25:11;;;;;;;8.80;5.00;;;;;;;;;;5005449;28;20061;-49
2022/03/31 01:27:38;;;;;;;9.27;5.50;;;;;;;;;;5005595;28;20672;-50
2022/03/31 01:30:13;;;;;;;10.55;5.40;;;;;;;;;;5005009;28;20279;-50
2022/03/31 01:32:39;;;;;;;9.30;5.22;;;;;;;;;;5004537;28;20025;-50
2022/03/31 01:35:04;;;;;;;10.40;5.55;;;;;;;;;;5004808;28;20081;-50
2022/03/31 01:37:30;;;;;;;8.55;5.63;;;;;;;;;;5006120;28;20033;-50
2022/03/31 01:39:56;;;;;;;12.50;7.03;;;;;;;;;;5004448;28;20053;-51
2022/03/31 01:42:22;;;;;;;11.95;6.47;;;;;;;;;;5018926;28;20523;-50
2022/03/31 01:44:48;;;;;;;8.40;5.10;;;;;;;;;;5008325;28;20114;-50
2022/03/31 01:47:13;;;;;;;9.85;5.18;;;;;;;;;;5004473;28;20105;-51
2022/03/31 01:49:38;;;;;;;10.43;5.37;;;;;;;;;;5005506;28;20644;-50
2022/03/31 01:52:04;;;;;;;10.70;5.47;;;;;;;;;;5005463;28;20489;-50
2022/03/31 01:54:30;;;;;;;11.60;5.88;;;;;;;;;;5005670;28;20296;-52
2022/03/31 01:56:55;;;;;;;9.10;4.25;;;;;;;;;;4986485;28;20417;-50
2022/03/31 01:59:20;;;;;;;10.50;5.25;;;;;;;;;;4982964;28;20018;-49
2022/03/31 02:01:48;;;;;;;10.23;5.20;;;;;;;;;;5003147;28;20056;-50
2022/03/31 02:04:13;;;;;;;10.27;5.70;;;;;;;;;;5013083;28;20124;-49
2022/03/31 02:06:38;;;;;;;8.57;4.87;;;;;;;;;;5005861;28;20147;-50
2022/03/31 02:09:03;;;;;;;9.13;5.30;;;;;;;;;;5005306;28;20072;-51
2022/03/31 02:11:29;;;;;;;10.90;5.87;;;;;;;;;;5005471;28;20096;-50
2022/03/31 02:13:54;;;;;;;11.45;4.60;;;;;;;;;;5005678;28;20324;-51
2022/03/31 02:16:19;;;;;;;10.67;5.17;;;;;;;;;;5005615;28;20473;-50
2022/03/31 02:18:45;;;;;;;9.30;4.53;;;;;;;;;;5005448;28;20476;-50
2022/03/31 02:21:11;;;;;;;7.88;4.63;;;;;;;;;;5009263;28;20346;-50
2022/03/31 02:23:37;;;;;;;8.45;4.65;;;;;;;;;;5017762;28;20026;-51
2022/03/31 02:26:02;;;;;;;8.90;4.75;;;;;;;;;;5005628;28;20113;-50
2022/03/31 02:28:27;;;;;;;9.18;5.05;;;;;;;;;;5005708;28;20025;-49
2022/03/31 02:30:53;;;;;;;8.33;4.93;;;;;;;;;;5005458;28;20332;-50
2022/03/31 02:33:18;;;;;;;8.03;4.20;;;;;;;;;;5005419;28;20129;-50
2022/03/31 02:35:43;;;;;;;9.30;4.97;;;;;;;;;;5004792;28;20277;-49
2022/03/31 02:38:09;;;;;;;8.85;4.65;;;;;;;;;;5004498;28;20026;-50
2022/03/31 02:40:34;;;;;;;8.60;4.53;;;;;;;;;;5004332;28;20018;-50
2022/03/31 02:42:59;;;;;;;8.90;4.93;;;;;;;;;;4991477;28;20022;-50
2022/03/31 02:45:24;;;;;;;8.87;4.57;;;;;;;;;;4991508;28;20277;-51
2022/03/31 02:47:50;;;;;;;7.30;4.18;;;;;;;;;;5005244;28;20644;-51
2022/03/31 02:50:16;;;;;;;9.35;5.07;;;;;;;;;;5004497;28;20278;-50
2022/03/31 02:55:27;;;;;;;10.38;5.45;;;;;;;;;;5005132;28;20512;-51
2022/03/31 02:57:53;;;;;;;8.52;4.80;;;;;;;;;;5005142;28;20053;-51
2022/03/31 03:00:19;;;;;;;8.97;4.50;;;;;;;;;;5004898;28;20030;-50
2022/03/31 03:02:44;;;;;;;8.27;4.78;;;;;;;;;;5021012;28;20869;-50
2022/03/31 03:05:09;;;;;;;9.20;4.97;;;;;;;;;;5004840;28;20022;-51
2022/03/31 03:07:34;;;;;;;9.10;5.17;;;;;;;;;;4998015;28;20852;-50
2022/03/31 03:10:00;;;;;;;8.30;4.37;;;;;;;;;;4967500;28;20278;-50
2022/03/31 03:12:25;;;;;;;8.47;4.60;;;;;;;;;;4966707;28;20273;-51
2022/03/31 03:14:51;;;;;;;8.67;5.13;;;;;;;;;;4949788;28;20038;-50
2022/03/31 03:17:17;;;;;;;8.75;4.50;;;;;;;;;;4973573;28;20277;-53
2022/03/31 03:19:42;;;;;;;9.05;4.60;;;;;;;;;;4985304;28;20125;-51
2022/03/31 03:22:07;;;;;;;8.70;5.00;;;;;;;;;;4974024;28;20121;-50
2022/03/31 03:24:33;;;;;;;7.83;4.47;;;;;;;;;;4966873;28;20285;-50
2022/03/31 03:26:58;;;;;;;8.10;4.47;;;;;;;;;;4971506;28;20023;-51
2022/03/31 03:29:23;;;;;;;9.23;4.15;;;;;;;;;;4969221;28;20266;-50
2022/03/31 03:31:51;;;;;;;8.43;4.50;;;;;;;;;;4967196;28;20030;-50
2022/03/31 03:36:51;;;;;;;14.55;6.68;;;;;;;;;;4965632;23;20042;-56
2022/03/31 03:39:22;;;;;;;8.90;4.73;;;;;;;;;;4981156;28;20042;-58
2022/03/31 03:41:47;;;;;;;9.45;4.80;;;;;;;;;;4977264;28;20301;-55
2022/03/31 03:44:12;;;;;;;8.53;4.40;;;;;;;;;;4988659;28;20041;-54
2022/03/31 03:46:38;;;;;;;9.87;5.13;;;;;;;;;;4960345;28;20042;-57
2022/03/31 03:49:03;;;;;;;7.55;4.80;;;;;;;;;;4978402;28;20034;-60
2022/03/31 03:51:28;;;;;;;9.57;5.77;;;;;;;;;;4977494;28;20524;-55
2022/03/31 03:53:54;;;;;;;10.70;6.47;;;;;;;;;;4987558;28;20823;-56
2022/03/31 03:56:19;;;;;;;9.30;6.57;;;;;;;;;;4997439;28;20038;-52
2022/03/31 03:58:45;;;;;;;8.60;4.63;;;;;;;;;;5001218;28;20060;-52
2022/03/31 04:01:10;;;;;;;8.20;5.03;;;;;;;;;;4983392;28;20033;-52
2022/03/31 04:03:36;;;;;;;10.00;4.80;;;;;;;;;;5003150;28;20029;-53
2022/03/31 04:06:01;;;;;;;7.03;3.97;;;;;;;;;;5004806;28;20367;-53
2022/03/31 04:08:26;;;;;;;9.00;5.25;;;;;;;;;;4990800;28;20097;-52
2022/03/31 04:10:51;;;;;;;7.97;4.65;;;;;;;;;;5003751;28;20030;-52
2022/03/31 04:13:17;;;;;;;8.70;5.37;;;;;;;;;;4986292;28;20087;-55
2022/03/31 04:15:42;;;;;;;8.35;5.10;;;;;;;;;;5002169;28;20304;-51
2022/03/31 04:18:08;;;;;;;7.65;5.13;;;;;;;;;;5004687;28;20113;-53
2022/03/31 04:20:33;;;;;;;8.40;4.20;;;;;;;;;;5003423;28;20773;-52
2022/03/31 04:22:58;;;;;;;12.37;9.53;;;;;;;;;;5004156;28;20017;-52
2022/03/31 04:25:24;;;;;;;9.47;7.43;;;;;;;;;;5004292;28;20759;-51
2022/03/31 04:27:49;;;;;;;9.07;5.57;;;;;;;;;;5004485;28;20280;-52
2022/03/31 04:30:18;;;;;;;12.10;9.70;;;;;;;;;;5003596;28;20030;-51
2022/03/31 04:32:43;;;;;;;10.80;9.40;;;;;;;;;;5001983;28;20807;-51
2022/03/31 04:35:10;;;;;;;13.17;9.53;;;;;;;;;;5003707;28;20542;-51
2022/03/31 04:37:36;;;;;;;8.82;6.65;;;;;;;;;;5003345;28;20140;-52
2022/03/31 04:40:02;;;;;;;8.00;3.60;;;;;;;;;;5004087;28;20072;-51
2022/03/31 04:42:27;;;;;;;8.32;4.20;;;;;;;;;;4998226;28;20308;-51
2022/03/31 04:44:52;;;;;;;8.03;4.70;;;;;;;;;;4997822;28;20054;-52
2022/03/31 04:47:18;;;;;;;11.60;7.57;;;;;;;;;;4991922;28;20049;-50
2022/03/31 04:49:43;;;;;;;9.77;7.22;;;;;;;;;;4996564;28;20053;-52
2022/03/31 04:52:08;;;;;;;11.33;6.10;;;;;;;;;;5003410;28;20037;-52
2022/03/31 04:54:33;;;;;;;8.32;4.30;;;;;;;;;;4993013;28;20037;-51
2022/03/31 04:56:59;;;;;;;9.40;5.00;;;;;;;;;;5003706;28;20552;-52
2022/03/31 04:59:24;;;;;;;8.82;4.40;;;;;;;;;;5003308;28;20276;-53
2022/03/31 05:01:49;;;;;;;10.73;9.27;;;;;;;;;;5003460;28;20598;-52
2022/03/31 05:04:16;;;;;;;10.95;8.25;;;;;;;;;;5002989;28;20080;-51
2022/03/31 05:06:41;;;;;;;8.90;6.93;;;;;;;;;;5003066;28;20030;-51
2022/03/31 05:09:07;;;;;;;11.70;10.23;;;;;;;;;;5003944;28;20697;-51
2022/03/31 05:11:32;;;;;;;11.90;9.35;;;;;;;;;;5003369;28;20037;-51
2022/03/31 05:13:57;;;;;;;11.23;8.97;;;;;;;;;;5002738;28;20128;-51
2022/03/31 05:16:22;;;;;;;8.57;4.23;;;;;;;;;;5002718;28;20077;-51
2022/03/31 05:18:48;;;;;;;9.90;6.53;;;;;;;;;;5003211;28;20022;-52
2022/03/31 05:21:13;;;;;;;9.70;5.65;;;;;;;;;;5003342;28;20026;-52
2022/03/31 05:23:38;;;;;;;9.73;6.18;;;;;;;;;;4994362;28;20605;-51
2022/03/31 05:26:03;;;;;;;10.23;8.73;;;;;;;;;;4985690;28;20046;-51
2022/03/31 05:28:29;;;;;;;10.13;6.10;;;;;;;;;;5002146;28;20036;-52
2022/03/31 05:30:54;;;;;;;9.23;8.23;;;;;;;;;;5000776;28;20285;-52
2022/03/31 05:33:19;;;;;;;8.00;5.43;;;;;;;;;;4995032;28;20275;-50
2022/03/31 05:35:45;;;;;;;18.55;16.80;;;;;;;;;;4982756;28;20349;-50
2022/03/31 05:38:10;;;;;;;19.38;17.63;;;;;;;;;;4985598;28;20580;-50
2022/03/31 05:40:35;;;;;;;23.53;21.33;;;;;;;;;;5002526;28;20681;-52
2022/03/31 05:43:00;;;;;;;22.92;20.92;;;;;;;;;;5002921;28;20756;-51
2022/03/31 05:45:26;;;;;;;22.20;20.17;;;;;;;;;;5001864;28;20026;-51
2022/03/31 05:47:51;;;;;;;19.97;18.20;;;;;;;;;;4989344;28;20061;-51
2022/03/31 05:50:16;;;;;;;24.70;22.40;;;;;;;;;;5000145;28;20269;-51
2022/03/31 05:52:44;;;;;;;13.00;11.73;;;;;;;;;;5001768;28;20030;-51
2022/03/31 05:55:11;;;;;;;15.98;14.38;;;;;;;;;;4990886;28;20041;-51
2022/03/31 05:57:36;;;;;;;28.95;26.40;;;;;;;;;;4993154;28;20033;-51
2022/03/31 06:00:03;;;;;;;26.38;24.10;;;;;;;;;;4999406;28;20018;-52
2022/03/31 06:02:29;;;;;;;14.30;12.90;;;;;;;;;;4988400;28;20097;-50
2022/03/31 06:04:54;;;;;;;18.17;16.40;;;;;;;;;;4996575;28;20664;-51
2022/03/31 06:07:19;;;;;;;11.87;10.67;;;;;;;;;;4996527;28;20272;-51
2022/03/31 06:09:44;;;;;;;13.88;12.55;;;;;;;;;;4997437;28;20030;-50
2022/03/31 06:12:10;;;;;;;15.77;14.33;;;;;;;;;;5004230;28;20022;-50
2022/03/31 06:14:35;;;;;;;15.13;13.67;;;;;;;;;;5004508;28;20313;-53
2022/03/31 06:17:00;;;;;;;20.23;15.47;;;;;;;;;;4967174;28;20194;-52
2022/03/31 06:19:25;;;;;;;13.93;12.63;;;;;;;;;;4969871;28;20311;-51
2022/03/31 06:21:51;;;;;;;6.65;3.92;;;;;;;;;;4977410;28;20776;-51
2022/03/31 06:24:16;;;;;;;20.57;16.00;;;;;;;;;;4979547;28;20042;-50
2022/03/31 06:26:41;;;;;;;18.33;16.70;;;;;;;;;;4969636;28;20527;-49
2022/03/31 06:29:06;;;;;;;18.23;16.73;;;;;;;;;;4984205;28;20517;-49
2022/03/31 06:31:32;;;;;;;18.23;16.57;;;;;;;;;;4975644;28;20105;-49
2022/03/31 06:33:57;;;;;;;19.65;17.75;;;;;;;;;;4964383;28;20282;-49
2022/03/31 06:36:22;;;;;;;10.17;8.67;;;;;;;;;;4964312;28;20061;-50
2022/03/31 06:38:47;;;;;;;10.13;9.13;;;;;;;;;;4966339;28;20054;-49
2022/03/31 06:41:15;;;;;;;14.60;13.30;;;;;;;;;;4964388;28;20040;-50
2022/03/31 06:43:41;;;;;;;9.82;8.70;;;;;;;;;;4965392;28;20034;-49
2022/03/31 06:46:07;;;;;;;11.35;10.15;;;;;;;;;;4970898;28;20025;-50
2022/03/31 06:48:32;;;;;;;6.75;4.13;;;;;;;;;;4976028;28;20046;-50
2022/03/31 06:50:58;;;;;;;10.55;9.05;;;;;;;;;;4976771;28;20116;-49
2022/03/31 06:53:23;;;;;;;10.68;6.78;;;;;;;;;;4977794;28;20497;-50
2022/03/31 06:55:48;;;;;;;7.68;5.95;;;;;;;;;;4983238;28;20416;-50
2022/03/31 06:58:14;;;;;;;9.38;7.47;;;;;;;;;;4975156;28;20034;-50
2022/03/31 07:00:39;;;;;;;13.90;12.70;;;;;;;;;;4975055;28;20420;-49
2022/03/31 07:03:04;;;;;;;17.65;16.10;;;;;;;;;;4967714;28;20341;-50
2022/03/31 07:05:29;;;;;;;13.05;11.70;;;;;;;;;;4964823;28;20030;-50
2022/03/31 07:07:55;;;;;;;21.03;19.17;;;;;;;;;;4954142;28;20496;-51
2022/03/31 07:10:21;;;;;;;14.90;13.40;;;;;;;;;;4963767;28;20306;-50
2022/03/31 07:12:47;;;;;;;12.35;11.15;;;;;;;;;;4964197;28;20025;-49
2022/03/31 07:15:12;;;;;;;11.65;10.25;;;;;;;;;;4963906;28;20035;-49
2022/03/31 07:17:38;;;;;;;10.80;9.57;;;;;;;;;;4966075;28;20486;-49
2022/03/31 07:20:03;;;;;;;13.77;12.48;;;;;;;;;;4964921;28;20039;-49
2022/03/31 07:22:29;;;;;;;30.98;28.20;;;;;;;;;;4965598;28;20306;-49
2022/03/31 07:24:54;;;;;;;32.60;29.90;;;;;;;;;;4966108;28;20034;-50
2022/03/31 07:27:19;;;;;;;23.03;21.03;;;;;;;;;;4966760;28;20038;-51
2022/03/31 07:29:45;;;;;;;26.00;23.75;;;;;;;;;;4964224;28;20991;-50
2022/03/31 07:32:10;;;;;;;5.47;3.30;;;;;;;;;;4964280;28;20022;-52
2022/03/31 07:34:35;;;;;;;10.73;7.10;;;;;;;;;;4963515;28;20318;-51
2022/03/31 07:37:01;;;;;;;32.25;29.42;;;;;;;;;;4965402;28;20030;-52
2022/03/31 07:39:26;;;;;;;40.67;36.88;;;;;;;;;;4969893;28;20110;-51
2022/03/31 07:41:51;;;;;;;39.95;36.33;;;;;;;;;;4969685;28;20022;-50
2022/03/31 07:44:17;;;;;;;39.93;36.20;;;;;;;;;;4967559;28;20027;-51
2022/03/31 07:46:42;;;;;;;25.13;23.00;;;;;;;;;;4967406;28;20803;-51
2022/03/31 07:49:08;;;;;;;25.63;23.50;;;;;;;;;;4967360;28;20042;-51
2022/03/31 07:51:33;;;;;;;32.47;29.33;;;;;;;;;;4967581;28;20018;-50
2022/03/31 07:53:58;;;;;;;38.27;34.93;;;;;;;;;;4953623;28;20132;-52
2022/03/31 07:56:23;;;;;;;39.27;35.27;;;;;;;;;;4967278;28;20029;-50
2022/03/31 07:58:49;;;;;;;54.17;48.63;;;;;;;;;;4984445;28;20018;-51
2022/03/31 08:01:14;;;;;;;7.13;3.25;;;;;;;;;;4983526;28;20022;-51
2022/03/31 08:03:39;;;;;;;40.67;37.08;;;;;;;;;;4972962;28;20034;-51
2022/03/31 08:06:06;;;;;;;55.67;50.00;;;;;;;;;;4984053;28;20030;-53
2022/03/31 08:08:31;;;;;;;37.60;33.70;;;;;;;;;;4969786;28;20038;-52
2022/03/31 08:10:56;;;;;;;113.03;82.88;;;;;;;;;;4986485;28;20045;-54
2022/03/31 08:13:25;;;;;;;105.63;75.00;;;;;;;;;;4988962;28;20077;-52
2022/03/31 08:15:52;;;;;;;14.63;13.13;;;;;;;;;;4975846;28;20274;-53
2022/03/31 08:18:18;;;;;;;36.85;33.53;;;;;;;;;;4970805;28;20516;-51
2022/03/31 08:20:43;;;;;;;79.65;66.90;;;;;;;;;;4989354;28;20014;-51
2022/03/31 08:23:08;;;;;;;4.57;2.40;;;;;;;;;;4989781;28;20476;-51
2022/03/31 08:25:34;;;;;;;13.30;12.03;;;;;;;;;;4989746;28;20468;-53
2022/03/31 08:27:59;;;;;;;56.53;50.78;;;;;;;;;;4975741;28;20824;-52
2022/03/31 08:30:25;;;;;;;51.97;47.00;;;;;;;;;;4952679;28;20022;-51
2022/03/31 08:32:50;;;;;;;88.13;71.03;;;;;;;;;;4970647;28;20772;-51
2022/03/31 08:35:15;;;;;;;39.28;35.33;;;;;;;;;;4950409;28;20039;-50
2022/03/31 08:37:41;;;;;;;5.72;3.55;;;;;;;;;;4970964;28;20053;-52
2022/03/31 08:40:06;;;;;;;64.13;57.27;;;;;;;;;;4985372;28;20029;-51
2022/03/31 08:42:32;;;;;;;6.43;5.57;;;;;;;;;;4970907;28;20019;-52
2022/03/31 08:44:57;;;;;;;6.80;4.10;;;;;;;;;;4969694;28;20018;-51
2022/03/31 08:47:23;;;;;;;43.75;39.17;;;;;;;;;;4980205;28;20023;-51
2022/03/31 08:49:48;;;;;;;18.17;15.55;;;;;;;;;;4969055;28;20035;-51
2022/03/31 08:52:13;;;;;;;96.85;75.65;;;;;;;;;;4952548;28;20027;-50
2022/03/31 08:54:40;;;;;;;163.48;104.32;;;;;;;;;;4969797;28;20046;-51
2022/03/31 08:57:05;;;;;;;7.70;2.67;;;;;;;;;;4987721;28;20019;-51
2022/03/31 08:59:31;;;;;;;10.20;4.20;;;;;;;;;;4988897;28;20649;-50
2022/03/31 09:01:56;;;;;;;15.65;10.98;;;;;;;;;;4988447;28;20284;-51
2022/03/31 09:04:21;;;;;;;133.45;83.72;;;;;;;;;;4988438;28;20026;-51
2022/03/31 09:07:05;;;;;;;51.03;30.23;;;;;;;;;;4980740;28;20498;-51
2022/03/31 09:09:31;;;;;;;243.95;134.50;;;;;;;;;;4983493;28;20575;-51
2022/03/31 09:11:56;;;;;;;283.67;150.88;;;;;;;;;;4989699;28;20026;-51
2022/03/31 09:14:28;;;;;;;6.00;2.73;;;;;;;;;;4982663;28;20042;-50
2022/03/31 09:16:53;;;;;;;279.05;162.75;;;;;;;;;;4967625;28;20357;-51
2022/03/31 09:19:18;;;;;;;186.03;98.83;;;;;;;;;;4967606;28;20554;-50
2022/03/31 09:21:50;;;;;;;4.55;2.03;;;;;;;;;;4969809;28;20396;-51
2022/03/31 09:24:16;;;;;;;5.60;2.78;;;;;;;;;;4982896;28;20038;-51
2022/03/31 09:26:44;;;;;;;5.72;2.60;;;;;;;;;;4981473;28;20418;-51
2022/03/31 09:29:11;;;;;;;6.25;2.40;;;;;;;;;;4968619;28;20014;-52
2022/03/31 09:31:36;;;;;;;4.93;2.20;;;;;;;;;;4985480;28;20030;-52
2022/03/31 09:34:01;;;;;;;5.03;2.33;;;;;;;;;;4986591;28;20866;-51
2022/03/31 09:36:27;;;;;;;6.60;3.27;;;;;;;;;;4985221;28;20575;-52
2022/03/31 09:38:58;;;;;;;5.22;2.55;;;;;;;;;;4968691;28;21231;-51
2022/03/31 09:41:30;;;;;;;4.90;2.17;;;;;;;;;;4979327;28;20026;-51
2022/03/31 09:43:57;;;;;;;7.07;2.88;;;;;;;;;;4984415;28;20034;-50
2022/03/31 09:46:25;;;;;;;5.60;2.42;;;;;;;;;;4982030;28;20041;-51
2022/03/31 09:48:51;;;;;;;6.32;2.50;;;;;;;;;;4967869;28;20037;-50
2022/03/31 09:51:17;;;;;;;4.68;2.58;;;;;;;;;;4974026;28;20030;-50
2022/03/31 09:53:42;;;;;;;6.13;2.55;;;;;;;;;;4979175;28;20117;-50
2022/03/31 09:56:07;;;;;;;4.13;2.13;;;;;;;;;;4979283;28;20030;-50
2022/03/31 09:58:34;;;;;;;4.63;2.28;;;;;;;;;;4966652;28;20010;-52
2022/03/31 10:01:00;;;;;;;5.90;2.15;;;;;;;;;;4950500;28;20018;-51
2022/03/31 10:03:25;;;;;;;4.93;2.33;;;;;;;;;;4972474;28;20045;-51
2022/03/31 10:05:52;;;;;;;6.27;2.87;;;;;;;;;;4986267;28;20026;-51
2022/03/31 10:08:18;;;;;;;6.75;2.38;;;;;;;;;;4982979;28;20482;-51
2022/03/31 10:10:44;;;;;;;4.68;2.30;;;;;;;;;;4986491;28;20018;-52
2022/03/31 10:13:15;;;;;;;4.88;2.42;;;;;;;;;;4987773;28;20021;-52
2022/03/31 10:15:40;;;;;;;5.25;2.47;;;;;;;;;;4970121;28;20050;-51
2022/03/31 10:18:06;;;;;;;4.15;2.30;;;;;;;;;;4970093;28;20413;-53
2022/03/31 10:20:31;;;;;;;7.40;2.57;;;;;;;;;;4986847;28;20030;-51
2022/03/31 10:25:47;;;;;;;4.90;2.20;;;;;;;;;;4987006;28;20284;-51
2022/03/31 10:28:16;;;;;;;8.05;2.70;;;;;;;;;;4983594;28;20034;-50
2022/03/31 10:31:01;;;;;;;7.15;3.03;;;;;;;;;;4986975;28;20034;-52
2022/03/31 10:33:28;;;;;;;5.30;2.25;;;;;;;;;;4987059;28;20046;-50
2022/03/31 10:36:00;;;;;;;7.45;2.80;;;;;;;;;;4987632;28;20085;-50
2022/03/31 10:38:25;;;;;;;4.13;2.30;;;;;;;;;;4987384;28;20100;-52
2022/03/31 10:40:50;;;;;;;7.63;2.73;;;;;;;;;;4984294;28;20101;-50
2022/03/31 10:43:26;;;;;;;6.30;2.20;;;;;;;;;;4989023;28;20038;-50
2022/03/31 10:45:54;;;;;;;5.53;2.50;;;;;;;;;;4988085;28;20033;-50
2022/03/31 10:48:23;;;;;;;5.47;2.28;;;;;;;;;;4967572;28;20093;-50
2022/03/31 10:50:59;;;;;;;7.27;2.70;;;;;;;;;;4981985;28;20019;-51
2022/03/31 10:53:28;;;;;;;5.55;2.45;;;;;;;;;;4977110;28;20328;-56
2022/03/31 10:55:55;;;;;;;4.18;2.33;;;;;;;;;;4968304;28;20031;-52
2022/03/31 10:58:21;;;;;;;5.00;2.22;;;;;;;;;;4983471;28;20027;-51
2022/03/31 11:00:49;;;;;;;4.93;2.42;;;;;;;;;;4986746;28;20027;-53
2022/03/31 11:03:17;;;;;;;4.47;2.13;;;;;;;;;;4986525;28;20109;-50
2022/03/31 11:05:43;;;;;;;4.20;2.20;;;;;;;;;;4985963;28;20034;-49
2022/03/31 11:08:08;;;;;;;6.33;2.80;;;;;;;;;;4972679;28;20409;-51
2022/03/31 11:10:41;;;;;;;4.82;2.40;;;;;;;;;;4967153;28;20053;-51
2022/03/31 11:13:07;;;;;;;4.03;2.60;;;;;;;;;;4963396;28;20074;-51
2022/03/31 11:15:32;;;;;;;5.93;2.55;;;;;;;;;;4963978;28;20528;-52
2022/03/31 11:17:59;;;;;;;4.78;2.50;;;;;;;;;;4978261;28;20027;-53
2022/03/31 11:20:25;;;;;;;3.90;2.15;;;;;;;;;;4986272;28;20497;-51
2022/03/31 11:22:51;;;;;;;7.50;2.92;;;;;;;;;;4986174;28;20100;-54
2022/03/31 11:25:17;;;;;;;6.07;2.40;;;;;;;;;;4986116;28;20033;-51
2022/03/31 11:27:42;;;;;;;5.30;2.42;;;;;;;;;;4970016;28;20440;-51
2022/03/31 11:30:11;;;;;;;7.75;2.33;;;;;;;;;;4976702;28;20027;-51
2022/03/31 11:32:37;;;;;;;7.65;2.55;;;;;;;;;;4965513;28;20153;-52
2022/03/31 11:35:03;;;;;;;6.00;2.60;;;;;;;;;;4963548;28;20488;-51
2022/03/31 11:37:28;;;;;;;7.45;2.55;;;;;;;;;;4970041;28;20035;-51
2022/03/31 11:39:53;;;;;;;6.05;2.97;;;;;;;;;;4967193;28;20037;-54
2022/03/31 11:42:19;;;;;;;8.35;2.83;;;;;;;;;;4967293;28;20027;-51
2022/03/31 11:44:44;;;;;;;4.03;2.40;;;;;;;;;;4969047;28;20025;-51
2022/03/31 11:47:20;;;;;;;6.25;3.00;;;;;;;;;;4983582;28;20014;-53
2022/03/31 11:49:54;;;;;;;8.15;2.95;;;;;;;;;;4981574;28;20018;-50
2022/03/31 11:52:26;;;;;;;10.80;3.58;;;;;;;;;;4965894;28;20066;-52
2022/03/31 11:54:52;;;;;;;5.93;2.55;;;;;;;;;;4960642;28;20118;-52
2022/03/31 11:57:17;;;;;;;6.45;2.40;;;;;;;;;;4967348;28;20458;-50
2022/03/31 11:59:42;;;;;;;5.30;2.72;;;;;;;;;;4965295;28;20150;-51
2022/03/31 12:02:14;;;;;;;7.27;3.13;;;;;;;;;;4966038;28;20033;-52
2022/03/31 12:04:41;;;;;;;5.72;2.63;;;;;;;;;;4967233;28;20282;-50
2022/03/31 12:07:06;;;;;;;8.07;3.15;;;;;;;;;;4965762;28;20502;-51
2022/03/31 12:09:32;;;;;;;5.95;2.95;;;;;;;;;;4968559;28;20109;-54
2022/03/31 12:11:58;;;;;;;8.75;3.03;;;;;;;;;;4951668;28;20057;-52
2022/03/31 12:14:25;;;;;;;8.00;3.22;;;;;;;;;;4965660;28;20054;-53
2022/03/31 12:16:52;;;;;;;7.20;2.78;;;;;;;;;;4966466;28;20037;-52
2022/03/31 12:19:18;;;;;;;8.70;3.00;;;;;;;;;;4973325;28;20073;-52
2022/03/31 12:21:50;;;;;;;6.15;2.70;;;;;;;;;;4953800;28;20034;-51
2022/03/31 12:24:16;;;;;;;7.20;3.10;;;;;;;;;;4968394;28;20031;-52
2022/03/31 12:26:59;;;;;;;8.95;2.85;;;;;;;;;;4971537;28;20422;-52
2022/03/31 12:29:33;;;;;;;6.00;3.05;;;;;;;;;;4970008;28;20042;-52
2022/03/31 12:32:02;;;;;;;6.80;2.95;;;;;;;;;;4969899;28;20113;-52
2022/03/31 12:34:27;;;;;;;7.40;2.90;;;;;;;;;;4969214;28;20222;-52
2022/03/31 12:36:53;;;;;;;6.22;3.00;;;;;;;;;;4969002;28;20550;-51
2022/03/31 12:39:18;;;;;;;5.88;3.10;;;;;;;;;;4969059;28;20097;-51
2022/03/31 12:41:48;;;;;;;5.75;2.78;;;;;;;;;;4952203;28;20026;-50
2022/03/31 12:44:16;;;;;;;;;;;;;;;;;;4969279;28;20100;-52
2022/03/31 12:46:45;;;;;;;5.70;2.63;;;;;;;;;;4952195;28;19920;-53
2022/03/31 12:49:13;;;;;;;7.00;2.95;;;;;;;;;;4968692;28;20086;-52
2022/03/31 12:51:45;;;;;;;6.88;3.05;;;;;;;;;;4968947;28;20019;-49
2022/03/31 12:54:19;;;;;;;6.30;3.08;;;;;;;;;;4968507;28;20027;-51
2022/03/31 12:56:48;;;;;;;6.28;2.90;;;;;;;;;;4971483;28;20560;-51
2022/03/31 12:59:20;;;;;;;7.63;2.80;;;;;;;;;;4967894;28;20091;-51
2022/03/31 13:01:55;;;;;;;6.03;2.80;;;;;;;;;;4968480;28;20030;-51
2022/03/31 13:04:20;;;;;;;7.45;3.67;;;;;;;;;;4967778;28;20190;-52
2022/03/31 13:06:46;;;;;;;6.00;3.13;;;;;;;;;;4951239;28;20078;-50
2022/03/31 13:09:11;;;;;;;6.83;3.50;;;;;;;;;;4967589;28;20744;-50
2022/03/31 13:11:36;;;;;;;9.10;3.70;;;;;;;;;;4970251;28;20599;-51
2022/03/31 13:14:01;;;;;;;7.50;3.10;;;;;;;;;;4967200;28;20286;-51
2022/03/31 13:16:28;;;;;;;6.97;3.50;;;;;;;;;;4965673;28;20031;-53
2022/03/31 13:18:53;;;;;;;7.40;3.40;;;;;;;;;;4968226;28;20332;-51
2022/03/31 13:21:19;;;;;;;7.33;3.43;;;;;;;;;;4968096;28;20035;-51
2022/03/31 13:23:44;;;;;;;7.82;3.08;;;;;;;;;;4967195;28;20262;-50
2022/03/31 13:26:10;;;;;;;8.52;3.40;;;;;;;;;;4950476;28;20035;-52
2022/03/31 13:28:36;;;;;;;6.60;2.83;;;;;;;;;;4968749;28;20011;-51
2022/03/31 13:31:01;;;;;;;7.85;3.58;;;;;;;;;;4969241;28;20035;-50
2022/03/31 13:33:26;;;;;;;8.95;4.43;;;;;;;;;;4975895;28;20428;-50
2022/03/31 13:35:52;;;;;;;7.00;3.33;;;;;;;;;;4977697;28;20038;-51
2022/03/31 13:38:17;;;;;;;9.45;3.25;;;;;;;;;;4970074;28;20310;-50
2022/03/31 13:40:43;;;;;;;10.40;3.70;;;;;;;;;;4983708;28;20048;-51
2022/03/31 13:43:09;;;;;;;7.55;3.38;;;;;;;;;;4988409;28;21094;-52
2022/03/31 13:45:34;;;;;;;6.72;3.08;;;;;;;;;;4987658;28;20042;-51
2022/03/31 13:48:00;;;;;;;7.35;3.60;;;;;;;;;;4975441;28;20387;-51
2022/03/31 13:50:26;;;;;;;8.05;3.67;;;;;;;;;;4981159;28;20036;-51
2022/03/31 13:55:36;;;;;;;10.07;4.10;;;;;;;;;;4956618;28;20333;-51
2022/03/31 14:03:29;;;;;;;9.73;3.63;;;;;;;;;;4963427;28;20161;-52
2022/03/31 14:05:55;;;;;;;10.48;3.95;;;;;;;;;;4988507;28;20515;-51
2022/03/31 14:08:20;;;;;;;12.43;3.92;;;;;;;;;;4979505;28;20022;-51
2022/03/31 14:10:45;;;;;;;11.90;4.20;;;;;;;;;;4985227;28;20036;-50
2022/03/31 14:13:10;;;;;;;11.07;3.83;;;;;;;;;;4969881;28;20385;-49
2022/03/31 14:15:37;;;;;;;9.73;3.57;;;;;;;;;;4975921;28;20113;-51
2022/03/31 14:18:04;;;;;;;10.32;4.13;;;;;;;;;;4971039;28;20771;-51
2022/03/31 14:20:30;;;;;;;11.43;3.92;;;;;;;;;;4968877;28;20053;-51
2022/03/31 14:22:55;;;;;;;11.70;4.70;;;;;;;;;;4965932;28;20482;-50
2022/03/31 14:25:21;;;;;;;12.82;3.92;;;;;;;;;;4974253;28;20727;-49
2022/03/31 14:27:46;;;;;;;13.40;4.10;;;;;;;;;;4979163;28;20030;-50
2022/03/31 14:30:11;;;;;;;10.37;4.33;;;;;;;;;;4985189;28;20274;-50
2022/03/31 14:32:38;;;;;;;8.73;4.25;;;;;;;;;;4981777;28;20030;-50
2022/03/31 14:35:04;;;;;;;11.52;3.85;;;;;;;;;;4969292;28;20037;-49
2022/03/31 14:37:30;;;;;;;9.82;3.78;;;;;;;;;;5007223;23;20050;-88
2022/03/31 14:39:55;;;;;;;10.75;3.40;;;;;;;;;;4982295;28;20291;-87
2022/03/31 14:42:21;;;;;;;11.85;4.45;;;;;;;;;;4983858;28;20534;-86
2022/03/31 14:44:47;;;;;;;69.93;57.28;;;;;;;;;;5003615;28;20057;-89
2022/03/31 14:47:12;;;;;;;148.38;97.55;;;;;;;;;;4991153;28;20025;-89